Time;durP1;ratioP1;P1;durP2;ratioP2;P2;SDS_P1;SDS_P2;PMS_P1;PMS_P2;Temp;Humidity;BMP_temperature;BMP_pressure;BME280_temperature;BME280_humidity;BME280_pressure;Samples;Min_cycle;Max_cycle;Signal;HPM_P1;HPM_P2
2022/08/19 00:00:18;;;;;;;9.45;6.55;;;;;;;22.69;50.97;100073.44;5029137;28;20041;-51
2022/08/19 00:02:45;;;;;;;13.68;5.15;;;;;;;22.73;51.00;100077.56;5019800;28;20510;-50
2022/08/19 00:05:13;;;;;;;8.15;5.55;;;;;;;22.74;51.15;100085.41;5014197;28;20104;-51
2022/08/19 00:07:39;;;;;;;9.10;5.20;;;;;;;22.74;51.10;100089.88;5028975;28;20042;-51
2022/08/19 00:10:07;;;;;;;11.35;6.13;;;;;;;22.55;51.06;100068.38;5028525;28;20041;-49
2022/08/19 00:12:33;;;;;;;9.73;5.57;;;;;;;22.69;51.03;100090.19;5030038;28;20513;-48
2022/08/19 00:14:59;;;;;;;11.30;5.65;;;;;;;22.61;51.08;100091.75;5031783;28;20068;-51
2022/08/19 00:17:25;;;;;;;9.35;5.90;;;;;;;22.54;50.90;100099.34;5031651;28;20073;-50
2022/08/19 00:19:51;;;;;;;7.72;5.32;;;;;;;22.54;51.02;100091.38;5030091;28;20045;-52
2022/08/19 00:22:17;;;;;;;13.20;5.85;;;;;;;22.51;51.10;100088.09;5015540;28;20025;-52
2022/08/19 00:24:45;;;;;;;11.75;5.22;;;;;;;22.51;51.21;100101.34;5032372;28;20069;-51
2022/08/19 00:27:11;;;;;;;11.85;5.72;;;;;;;22.51;51.14;100093.41;5031341;28;20045;-49
2022/08/19 00:29:37;;;;;;;9.93;5.68;;;;;;;22.36;50.82;100075.09;5031881;28;20069;-50
2022/08/19 00:32:04;;;;;;;8.77;5.50;;;;;;;22.44;51.07;100093.06;5032557;28;20075;-53
2022/08/19 00:34:29;;;;;;;12.45;5.90;;;;;;;22.40;50.93;100094.25;5028798;28;20050;-51
2022/08/19 00:36:56;;;;;;;10.52;5.70;;;;;;;22.36;51.07;100093.63;5015788;28;20195;-48
2022/08/19 00:39:22;;;;;;;12.77;5.75;;;;;;;22.33;51.18;100096.53;5022989;28;20037;-53
2022/08/19 00:41:49;;;;;;;8.40;5.35;;;;;;;22.33;51.20;100096.53;5032846;28;20044;-52
2022/08/19 00:44:27;;;;;;;12.02;6.00;;;;;;;22.34;51.35;100098.22;5032133;28;20045;-51
2022/08/19 00:46:54;;;;;;;12.85;5.63;;;;;;;22.31;50.86;100094.94;5012891;28;20080;-52
2022/08/19 00:49:43;;;;;;;9.98;5.97;;;;;;;22.30;51.04;100098.56;5023045;28;20057;-48
2022/08/19 00:52:15;;;;;;;9.75;6.40;;;;;;;22.25;50.78;100100.72;5032177;28;20510;-49
2022/08/19 00:54:42;;;;;;;10.98;6.05;;;;;;;22.23;50.49;100103.50;5030633;28;20072;-52
2022/08/19 00:57:14;;;;;;;11.10;6.28;;;;;;;22.25;50.72;100106.84;5031192;28;20083;-51
2022/08/19 00:59:42;;;;;;;10.93;5.88;;;;;;;22.09;50.61;100086.94;5030946;28;20036;-52
2022/08/19 01:02:08;;;;;;;11.00;6.30;;;;;;;22.22;50.57;100103.59;5030942;28;20124;-54
2022/08/19 01:04:33;;;;;;;9.90;6.40;;;;;;;22.19;50.49;100111.78;5031474;28;20175;-54
2022/08/19 01:07:02;;;;;;;12.68;6.28;;;;;;;22.17;50.58;100106.59;5032375;28;20069;-50
2022/08/19 01:09:28;;;;;;;18.10;6.47;;;;;;;22.16;50.74;100109.34;5032399;28;20422;-49
2022/08/19 01:11:55;;;;;;;12.25;6.68;;;;;;;22.10;50.52;100109.81;5030390;28;20038;-47
2022/08/19 01:14:20;;;;;;;9.23;6.07;;;;;;;22.08;50.64;100119.69;5029591;28;20073;-49
2022/08/19 01:16:47;;;;;;;10.40;6.53;;;;;;;22.04;50.49;100128.81;5028967;28;20040;-53
2022/08/19 01:19:20;;;;;;;15.82;6.88;;;;;;;22.04;50.59;100129.66;5029447;28;20041;-52
2022/08/19 01:22:02;;;;;;;13.63;6.40;;;;;;;21.93;50.55;100129.56;5030568;28;20513;-48
2022/08/19 01:24:28;;;;;;;10.10;6.57;;;;;;;21.94;50.70;100140.09;5030258;28;20421;-48
2022/08/19 01:26:54;;;;;;;10.93;6.50;;;;;;;21.91;51.00;100131.50;5031786;28;20045;-48
2022/08/19 01:29:20;;;;;;;15.63;7.00;;;;;;;21.88;51.02;100135.22;5030465;28;20081;-51
2022/08/19 01:31:46;;;;;;;12.60;6.53;;;;;;;21.84;51.25;100136.41;5031747;28;20073;-53
2022/08/19 01:34:11;;;;;;;13.35;7.32;;;;;;;21.83;51.29;100132.06;5031264;28;20052;-52
2022/08/19 01:36:46;;;;;;;16.73;6.57;;;;;;;21.81;51.27;100130.50;5031569;28;20033;-53
2022/08/19 01:39:17;;;;;;;13.05;7.05;;;;;;;21.57;51.36;100106.66;5019282;28;20057;-53
2022/08/19 01:41:43;;;;;;;17.17;7.63;;;;;;;21.70;51.23;100138.38;5014426;28;20030;-52
2022/08/19 01:44:10;;;;;;;13.10;7.25;;;;;;;21.65;51.48;100132.56;5027986;28;20061;-52
2022/08/19 01:46:36;;;;;;;17.30;7.50;;;;;;;21.58;51.69;100131.31;5024160;28;20041;-51
2022/08/19 01:49:03;;;;;;;14.23;7.05;;;;;;;21.34;51.66;100104.84;5028474;28;20052;-53
2022/08/19 01:51:30;;;;;;;14.30;6.93;;;;;;;21.52;51.73;100137.91;5024963;28;20798;-49
2022/08/19 01:53:56;;;;;;;14.63;7.75;;;;;;;21.47;51.75;100130.28;5021461;28;20042;-54
2022/08/19 01:56:24;;;;;;;12.02;6.88;;;;;;;21.28;51.96;100114.06;5022751;28;20072;-55
2022/08/19 01:58:56;;;;;;;13.43;7.93;;;;;;;21.19;52.17;100103.31;5030975;28;20049;-48
2022/08/19 02:01:23;;;;;;;12.50;7.75;;;;;;;21.37;52.09;100133.72;5017460;28;20057;-54
2022/08/19 02:03:49;;;;;;;11.85;6.88;;;;;;;21.37;52.12;100129.28;5019103;28;20049;-49
2022/08/19 02:06:16;;;;;;;14.20;7.25;;;;;;;21.37;52.36;100131.06;5029800;28;20144;-54
2022/08/19 02:08:45;;;;;;;12.93;6.72;;;;;;;21.34;52.21;100140.09;5031047;28;20127;-48
2022/08/19 02:11:23;;;;;;;10.85;5.90;;;;;;;21.35;52.39;100139.13;5030626;28;20545;-49
2022/08/19 02:13:50;;;;;;;10.95;6.22;;;;;;;21.19;52.51;100105.94;5029999;28;20526;-51
2022/08/19 02:16:17;;;;;;;18.25;7.22;;;;;;;21.36;52.38;100129.38;5031140;28;20041;-53
2022/08/19 02:18:43;;;;;;;11.27;6.40;;;;;;;21.39;52.22;100135.31;5030587;28;20056;-53
2022/08/19 02:21:10;;;;;;;12.18;6.82;;;;;;;21.30;52.36;100113.97;5011079;28;20417;-50
2022/08/19 02:23:36;;;;;;;11.30;6.38;;;;;;;21.37;52.24;100123.97;5021623;28;20505;-52
2022/08/19 02:26:02;;;;;;;12.25;6.55;;;;;;;21.39;52.21;100126.53;5015979;28;20540;-50
2022/08/19 02:28:32;;;;;;;11.18;6.47;;;;;;;21.35;52.35;100128.56;5030221;28;20111;-53
2022/08/19 02:31:00;;;;;;;14.00;6.88;;;;;;;21.36;52.32;100145.25;5028624;28;20064;-52
2022/08/19 02:33:26;;;;;;;11.05;6.10;;;;;;;21.36;52.15;100151.38;5010862;28;20117;-49
2022/08/19 02:35:52;;;;;;;13.20;6.13;;;;;;;21.39;52.08;100159.13;5012480;28;20050;-48
2022/08/19 02:38:25;;;;;;;12.43;6.32;;;;;;;21.47;52.08;100159.41;5009934;28;20048;-51
2022/08/19 02:40:53;;;;;;;13.02;6.13;;;;;;;21.38;51.83;100149.50;5011048;28;20115;-49
2022/08/19 02:43:20;;;;;;;12.13;6.10;;;;;;;21.31;51.93;100131.50;5011812;28;20502;-51
2022/08/19 02:45:47;;;;;;;11.13;6.03;;;;;;;21.53;51.91;100163.41;5029099;28;20042;-49
2022/08/19 02:48:17;;;;;;;12.85;6.30;;;;;;;21.52;51.88;100159.91;5025452;28;20429;-49
2022/08/19 02:50:43;;;;;;;11.85;6.20;;;;;;;21.51;51.81;100165.34;5020425;28;20473;-48
2022/08/19 02:53:09;;;;;;;8.52;5.28;;;;;;;21.54;51.69;100165.09;5029014;28;20045;-53
2022/08/19 02:55:42;;;;;;;11.98;5.68;;;;;;;21.64;51.56;100160.00;5028466;28;20505;-48
2022/08/19 02:58:08;;;;;;;7.55;5.35;;;;;;;21.67;51.43;100162.44;5029582;28;20115;-48
2022/08/19 03:00:34;;;;;;;11.88;6.53;;;;;;;21.64;51.32;100160.00;5024683;28;20041;-51
2022/08/19 03:03:00;;;;;;;14.35;5.40;;;;;;;21.66;51.42;100155.44;5030357;28;20049;-49
2022/08/19 03:05:27;;;;;;;10.38;6.30;;;;;;;21.70;51.32;100157.75;5028535;28;20045;-52
2022/08/19 03:07:53;;;;;;;13.27;5.90;;;;;;;21.74;51.00;100167.16;5028145;28;20076;-50
2022/08/19 03:10:19;;;;;;;10.60;5.50;;;;;;;21.80;51.20;100165.88;5025166;28;20062;-51
2022/08/19 03:12:47;;;;;;;11.20;5.97;;;;;;;21.77;51.11;100152.88;5010454;28;20151;-49
2022/08/19 03:15:12;;;;;;;14.33;6.53;;;;;;;21.80;51.16;100163.22;5012732;28;20132;-49
2022/08/19 03:17:38;;;;;;;10.02;5.53;;;;;;;21.77;50.95;100166.09;5010436;28;20129;-48
2022/08/19 03:20:05;;;;;;;14.90;6.53;;;;;;;21.76;50.98;100167.06;5014749;28;20143;-50
2022/08/19 03:22:30;;;;;;;9.52;5.30;;;;;;;21.81;51.04;100171.06;5011801;28;20047;-52
2022/08/19 03:24:56;;;;;;;9.68;5.65;;;;;;;21.88;51.09;100176.72;5010357;28;20034;-49
2022/08/19 03:27:22;;;;;;;12.40;5.90;;;;;;;21.88;51.18;100172.28;5009110;28;20049;-49
2022/08/19 03:29:48;;;;;;;12.45;5.95;;;;;;;21.83;51.25;100177.06;5019042;28;20120;-52
2022/08/19 03:32:14;;;;;;;13.30;6.03;;;;;;;21.58;51.07;100131.31;5029180;28;20049;-50
2022/08/19 03:34:39;;;;;;;18.15;7.05;;;;;;;21.75;51.23;100165.34;5010587;28;20487;-53
2022/08/19 03:37:08;;;;;;;13.25;5.40;;;;;;;21.74;51.44;100169.78;5010393;28;20494;-49
2022/08/19 03:39:36;;;;;;;12.55;5.70;;;;;;;21.74;51.25;100161.84;5022606;28;20485;-50
2022/08/19 03:42:02;;;;;;;13.82;6.03;;;;;;;21.80;51.32;100174.66;5029373;28;20543;-52
2022/08/19 03:44:29;;;;;;;10.40;6.25;;;;;;;21.81;51.33;100173.69;5028107;28;20072;-51
2022/08/19 03:46:57;;;;;;;12.70;5.80;;;;;;;21.88;51.19;100174.06;5029287;28;20050;-51
2022/08/19 03:49:26;;;;;;;14.03;6.20;;;;;;;21.90;51.16;100167.72;5027600;28;20121;-52
2022/08/19 03:51:52;;;;;;;;;;;;;;;21.93;51.17;100174.59;5034283;28;20307;-50
2022/08/19 03:54:20;;;;;;;17.02;5.65;;;;;;;21.96;51.03;100174.41;5033225;28;20055;-51
2022/08/19 03:56:48;;;;;;;11.63;5.90;;;;;;;22.02;51.19;100171.31;5033581;28;20096;-50
2022/08/19 03:59:17;;;;;;;14.25;6.50;;;;;;;22.00;51.17;100170.56;5032107;28;20045;-50
2022/08/19 04:01:43;;;;;;;10.27;5.75;;;;;;;22.02;51.15;100173.97;5015755;28;20134;-54
2022/08/19 04:04:09;;;;;;;12.00;5.20;;;;;;;22.07;51.26;100177.13;5014452;28;20064;-51
2022/08/19 04:06:36;;;;;;;11.10;5.20;;;;;;;22.14;51.00;100169.56;5028522;28;20041;-51
2022/08/19 04:09:05;;;;;;;11.70;5.15;;;;;;;22.09;50.84;100175.19;5065461;28;20033;-51
2022/08/19 04:11:35;;;;;;;7.43;4.28;;;;;;;22.06;50.91;100175.41;5031688;28;20085;-49
2022/08/19 04:14:01;;;;;;;12.65;6.90;;;;;;;22.13;50.80;100176.66;5033390;28;20045;-51
2022/08/19 04:16:28;;;;;;;17.42;5.60;;;;;;;22.15;50.92;100179.19;5031915;28;20041;-50
2022/08/19 04:18:56;;;;;;;13.88;5.30;;;;;;;22.12;50.88;100177.63;5022308;28;20037;-51
2022/08/19 04:21:24;;;;;;;12.18;4.78;;;;;;;22.16;50.83;100181.72;5012427;28;20040;-49
2022/08/19 04:23:51;;;;;;;9.65;5.40;;;;;;;22.10;50.78;100153.03;5019035;28;20152;-52
2022/08/19 04:26:22;;;;;;;13.73;5.07;;;;;;;22.36;50.51;100180.22;5032550;28;20076;-52
2022/08/19 04:28:48;;;;;;;12.65;4.95;;;;;;;22.44;50.25;100180.50;5032275;28;20053;-53
2022/08/19 04:31:17;;;;;;;12.48;5.88;;;;;;;22.21;50.27;100134.53;5030779;28;20095;-51
2022/08/19 04:33:43;;;;;;;9.38;4.38;;;;;;;22.64;49.99;100171.88;5027792;28;20064;-49
2022/08/19 04:36:21;;;;;;;9.68;4.13;;;;;;;22.71;49.80;100181.09;5030598;28;20041;-49
2022/08/19 04:38:48;;;;;;;7.80;4.38;;;;;;;22.78;49.42;100194.72;5031278;28;20064;-51
2022/08/19 04:44:02;;;;;;;7.75;3.90;;;;;;;22.95;49.31;100190.75;5031501;28;20052;-53
2022/08/19 04:46:30;;;;;;;8.40;4.50;;;;;;;23.00;49.11;100201.84;5014583;28;20124;-49
2022/08/19 04:48:56;;;;;;;10.85;4.80;;;;;;;23.00;49.18;100196.56;5016987;28;20734;-50
2022/08/19 04:51:23;;;;;;;7.07;3.70;;;;;;;22.77;49.06;100150.59;5042209;28;20044;-50
2022/08/19 04:53:48;;;;;;;8.40;4.30;;;;;;;22.98;48.82;100162.19;5032595;28;20045;-52
2022/08/19 04:56:17;;;;;;;24.15;5.15;;;;;;;22.98;48.76;100154.22;5034968;28;20042;-50
2022/08/19 04:58:44;;;;;;;20.02;4.35;;;;;;;23.10;48.78;100168.34;5032150;28;20048;-52
2022/08/19 05:01:32;;;;;;;7.45;4.00;;;;;;;23.37;48.72;100199.81;5031685;28;20052;-53
2022/08/19 05:04:00;;;;;;;14.00;4.03;;;;;;;23.49;48.50;100202.41;5023438;28;20418;-51
2022/08/19 05:06:25;;;;;;;12.37;4.23;;;;;;;23.53;48.25;100200.34;5031329;28;20532;-52
2022/08/19 05:08:51;;;;;;;9.45;4.25;;;;;;;23.66;48.10;100197.56;5032291;28;20080;-51
2022/08/19 05:11:19;;;;;;;15.25;4.20;;;;;;;23.64;47.92;100208.28;5032107;28;20084;-51
2022/08/19 05:13:48;;;;;;;11.73;3.65;;;;;;;23.77;47.96;100200.16;5021874;28;20038;-54
2022/08/19 05:16:15;;;;;;;7.40;3.85;;;;;;;23.88;47.65;100205.44;5021712;28;20049;-54
2022/08/19 05:24:12;;;;;;;8.40;3.72;;;;;;;24.05;47.39;100204.94;5039205;28;20044;-52
2022/08/19 05:26:40;;;;;;;12.20;5.03;;;;;;;23.93;47.26;100169.59;5042068;28;20040;-51
2022/08/19 05:29:08;;;;;;;6.68;3.53;;;;;;;24.20;47.23;100197.53;5030828;28;20057;-51
2022/08/19 05:31:35;;;;;;;7.38;3.70;;;;;;;24.27;47.31;100202.22;5031474;28;20041;-48
2022/08/19 05:34:01;;;;;;;9.23;3.30;;;;;;;24.34;47.02;100198.06;5030856;28;20041;-49
2022/08/19 05:36:28;;;;;;;8.20;3.75;;;;;;;24.41;46.66;100199.25;5030182;28;20041;-51
2022/08/19 05:38:55;;;;;;;5.93;4.10;;;;;;;24.49;46.56;100196.78;5029159;28;20052;-49
2022/08/19 05:41:29;;;;;;;9.60;4.05;;;;;;;24.39;46.51;100181.78;5029031;28;20128;-50
2022/08/19 05:43:58;;;;;;;8.40;4.55;;;;;;;24.55;46.64;100197.28;5030156;28;20417;-49
2022/08/19 05:46:24;;;;;;;8.45;4.15;;;;;;;24.66;46.20;100199.84;5027870;28;20045;-47
2022/08/19 05:48:49;;;;;;;7.15;3.92;;;;;;;24.78;45.96;100188.19;5029537;28;20587;-50
2022/08/19 05:51:16;;;;;;;11.88;4.32;;;;;;;24.88;45.88;100197.94;5024623;28;20084;-51
2022/08/19 05:53:44;;;;;;;9.40;4.75;;;;;;;25.01;45.63;100194.22;5026201;28;20041;-49
2022/08/19 05:56:14;;;;;;;13.27;5.15;;;;;;;25.13;45.62;100201.13;5023622;28;20049;-52
2022/08/19 05:58:41;;;;;;;47.88;29.17;;;;;;;24.99;45.56;100169.56;5032512;28;20039;-50
2022/08/19 06:01:26;;;;;;;32.35;13.73;;;;;;;25.37;45.15;100201.69;5018904;28;20433;-53
2022/08/19 06:03:53;;;;;;;25.33;8.50;;;;;;;25.31;44.85;100178.25;5021772;28;20046;-52
2022/08/19 06:06:19;;;;;;;17.27;6.65;;;;;;;25.43;44.95;100181.66;5029215;28;20077;-53
2022/08/19 06:08:50;;;;;;;13.02;5.60;;;;;;;25.63;45.16;100199.41;5030259;28;20076;-50
2022/08/19 06:11:39;;;;;;;12.30;5.75;;;;;;;25.68;44.54;100191.84;5026905;28;20041;-52
2022/08/19 06:14:10;;;;;;;11.35;5.20;;;;;;;25.78;44.55;100203.38;5025742;28;20045;-51
2022/08/19 06:16:38;;;;;;;14.68;4.95;;;;;;;25.82;44.44;100199.44;5029859;28;20041;-51
2022/08/19 06:19:07;;;;;;;21.05;6.32;;;;;;;25.84;44.31;100202.84;5022152;28;20038;-52
2022/08/19 06:21:33;;;;;;;;;;;;;;;25.88;44.24;100209.56;5030125;28;20464;-52
2022/08/19 06:23:59;;;;;;;28.17;10.95;;;;;;;25.94;43.94;100216.16;5031043;28;19917;-49
2022/08/19 06:26:26;;;;;;;25.90;14.25;;;;;;;25.82;44.09;100185.28;5028319;28;20395;-49
2022/08/19 06:28:52;;;;;;;76.35;46.10;;;;;;;26.04;43.75;100217.03;5014222;28;20145;-48
2022/08/19 06:31:20;;;;;;;123.07;78.07;;;;;;;26.15;43.72;100219.56;5017315;28;20136;-48
2022/08/19 06:33:48;;;;;;;128.13;66.07;;;;;;;26.22;43.84;100220.72;5032979;28;20075;-50
2022/08/19 06:36:31;;;;;;;13.50;6.60;;;;;;;26.13;43.03;100160.22;5031794;28;20472;-52
2022/08/19 06:39:09;;;;;;;21.45;13.13;;;;;;;26.66;42.74;100213.13;5029606;28;20503;-51
2022/08/19 06:41:37;;;;;;;30.50;13.35;;;;;;;26.87;42.14;100211.16;5040473;28;20030;-51
2022/08/19 06:44:04;;;;;;;57.60;30.45;;;;;;;27.08;42.17;100216.28;5025948;28;20129;-52
2022/08/19 06:46:30;;;;;;;86.85;50.78;;;;;;;27.40;41.41;100206.91;5025050;28;20045;-53
2022/08/19 06:49:03;;;;;;;7.95;5.03;;;;;;;27.90;40.62;100208.38;5021895;28;20119;-51
2022/08/19 06:51:31;;;;;;;74.75;43.72;;;;;;;28.21;39.63;100205.19;5029283;28;20034;-53
2022/08/19 06:53:59;;;;;;;48.40;30.27;;;;;;;28.59;39.19;100216.56;5010285;28;20096;-51
2022/08/19 06:56:45;;;;;;;18.97;10.67;;;;;;;29.05;38.49;100210.03;5028872;28;20521;-52
2022/08/19 06:59:14;;;;;;;15.48;8.38;;;;;;;28.98;38.02;100193.78;5030089;28;20043;-51
2022/08/19 07:01:46;;;;;;;21.55;13.02;;;;;;;28.84;38.51;100204.25;5030166;28;20107;-50
2022/08/19 07:04:15;;;;;;;10.98;4.53;;;;;;;28.69;38.40;100208.44;5025371;28;20402;-48
2022/08/19 07:06:42;;;;;;;15.48;8.38;;;;;;;28.54;38.50;100206.31;5026860;28;20103;-48
2022/08/19 07:09:09;;;;;;;14.18;5.50;;;;;;;28.29;38.85;100209.78;5028196;28;20052;-51
2022/08/19 07:11:35;;;;;;;8.27;5.50;;;;;;;27.80;39.04;100170.97;5029511;28;20056;-49
2022/08/19 07:14:02;;;;;;;29.95;19.48;;;;;;;27.86;39.59;100194.44;5026801;28;20107;-50
2022/08/19 07:16:29;;;;;;;29.80;15.25;;;;;;;27.76;39.77;100197.19;5026805;28;20045;-49
2022/08/19 07:18:56;;;;;;;46.90;22.58;;;;;;;27.65;39.95;100199.22;5029682;28;20472;-50
2022/08/19 07:21:26;;;;;;;9.77;4.35;;;;;;;27.28;40.28;100152.00;5026235;28;20120;-51
2022/08/19 07:23:52;;;;;;;18.95;9.82;;;;;;;27.45;40.30;100203.78;5038130;28;20060;-50
2022/08/19 07:26:21;;;;;;;22.58;10.70;;;;;;;27.39;40.61;100194.53;5026220;28;20073;-55
2022/08/19 07:28:48;;;;;;;11.13;5.95;;;;;;;27.31;40.51;100204.28;5033366;28;20060;-52
2022/08/19 07:31:18;;;;;;;14.18;8.65;;;;;;;27.31;40.68;100204.28;5033626;28;20124;-48
2022/08/19 07:33:44;;;;;;;59.25;35.90;;;;;;;27.27;40.49;100206.38;5026214;28;20041;-48
2022/08/19 07:36:12;;;;;;;37.65;20.42;;;;;;;27.29;40.63;100204.41;5028979;28;20282;-51
2022/08/19 07:38:40;;;;;;;13.50;8.40;;;;;;;27.31;40.62;100198.94;5033363;28;20044;-52
2022/08/19 07:41:07;;;;;;;10.80;6.70;;;;;;;27.18;40.17;100169.03;5029239;28;20096;-48
2022/08/19 07:43:33;;;;;;;20.52;5.75;;;;;;;27.39;39.59;100215.06;5034624;28;20034;-50
2022/08/19 07:45:58;;;;;;;48.78;26.50;;;;;;;27.46;39.33;100215.31;5022425;28;20438;-51
2022/08/19 07:48:27;;;;;;;15.40;6.55;;;;;;;27.62;38.86;100211.06;5025445;28;20065;-49
2022/08/19 07:51:01;;;;;;;39.00;23.90;;;;;;;27.88;38.63;100221.88;5041301;28;20176;-52
2022/08/19 07:53:28;;;;;;;7.22;5.40;;;;;;;28.29;37.90;100216.97;5028652;28;20115;-51
2022/08/19 07:55:54;;;;;;;15.23;9.45;;;;;;;29.10;36.72;100209.59;5031548;28;20505;-53
2022/08/19 07:58:21;;;;;;;9.52;4.95;;;;;;;30.39;34.84;100223.47;5032079;28;20037;-50
2022/08/19 08:00:49;;;;;;;15.55;11.27;;;;;;;32.01;32.65;100223.13;5020103;28;20107;-53
2022/08/19 08:03:18;;;;;;;19.90;7.85;;;;;;;32.70;31.23;100194.41;5021303;28;20030;-53
2022/08/19 08:11:16;;;;;;;10.00;4.32;;;;;;;34.69;28.07;100221.84;5032269;28;20033;-51
2022/08/19 08:13:42;;;;;;;21.42;11.75;;;;;;;34.83;27.68;100229.03;5033158;28;20586;-52
2022/08/19 08:16:08;;;;;;;20.25;8.38;;;;;;;34.71;27.34;100229.75;5033008;28;20130;-51
2022/08/19 08:18:41;;;;;;;14.82;10.23;;;;;;;34.63;27.39;100232.56;5032838;28;20084;-55
2022/08/19 08:21:07;;;;;;;30.38;17.85;;;;;;;34.63;27.27;100237.97;5032411;28;20045;-50
2022/08/19 08:23:33;;;;;;;17.08;7.50;;;;;;;34.38;27.20;100237.53;5032870;28;20370;-53
2022/08/19 08:25:59;;;;;;;10.60;4.20;;;;;;;33.52;27.96;100241.88;5033280;28;20049;-48
2022/08/19 08:28:27;;;;;;;12.85;7.53;;;;;;;32.84;29.08;100233.16;5043306;28;20139;-49
2022/08/19 08:30:54;;;;;;;24.83;11.77;;;;;;;32.46;29.57;100235.78;5030157;28;20086;-49
2022/08/19 08:33:23;;;;;;;12.25;4.60;;;;;;;32.17;29.86;100241.91;5025819;28;20087;-54
2022/08/19 08:35:49;;;;;;;7.35;4.65;;;;;;;31.87;30.58;100256.19;5021768;28;20048;-54
2022/08/19 08:38:15;;;;;;;16.00;7.25;;;;;;;31.44;31.31;100252.97;5026259;28;20045;-55
2022/08/19 08:41:06;;;;;;;13.23;7.30;;;;;;;31.18;31.86;100244.28;5016655;28;20057;-55
2022/08/19 08:43:41;;;;;;;11.60;5.93;;;;;;;30.94;31.72;100255.03;5020156;28;20041;-54
2022/08/19 08:46:21;;;;;;;14.77;5.57;;;;;;;30.73;32.38;100250.19;5029961;28;20045;-53
2022/08/19 08:48:56;;;;;;;8.40;5.20;;;;;;;30.71;32.28;100247.69;5039069;28;20045;-51
2022/08/19 08:51:43;;;;;;;7.78;5.60;;;;;;;31.01;32.08;100235.41;5029922;28;20128;-53
2022/08/19 08:54:12;;;;;;;10.63;6.63;;;;;;;32.00;31.00;100234.91;5021819;28;20044;-52
2022/08/19 08:56:42;;;;;;;17.50;11.10;;;;;;;33.26;29.58;100237.97;5042840;28;20075;-56
2022/08/19 08:59:33;;;;;;;13.20;10.70;;;;;;;34.93;27.75;100241.34;5022631;28;20041;-55
2022/08/19 09:01:59;;;;;;;32.90;17.08;;;;;;;36.12;26.25;100235.53;5040750;28;20591;-51
2022/08/19 09:04:25;;;;;;;43.30;25.55;;;;;;;37.02;24.95;100242.34;5025198;28;20079;-55
2022/08/19 09:07:07;;;;;;;18.90;9.50;;;;;;;37.57;24.21;100250.00;5028905;28;20449;-55
2022/08/19 09:09:51;;;;;;;10.38;6.95;;;;;;;38.23;23.37;100248.84;5028571;28;20041;-52
2022/08/19 09:12:35;;;;;;;15.30;9.95;;;;;;;38.81;22.89;100241.34;5027668;28;20036;-51
2022/08/19 09:15:07;;;;;;;28.02;15.93;;;;;;;39.16;22.18;100209.00;5021490;28;20429;-55
2022/08/19 09:17:35;;;;;;;7.40;4.80;;;;;;;38.86;22.17;100239.63;5030405;28;20094;-58
2022/08/19 09:20:10;;;;;;;17.42;6.38;;;;;;;39.09;22.31;100230.03;5028888;28;20140;-55
2022/08/19 09:22:37;;;;;;;14.15;8.35;;;;;;;39.15;22.04;100232.66;5023717;28;20038;-51
2022/08/19 09:25:04;;;;;;;15.60;6.22;;;;;;;39.59;21.69;100239.72;5016991;28;20041;-56
2022/08/19 09:27:31;;;;;;;8.65;6.70;;;;;;;40.18;21.08;100241.69;5029391;28;20064;-56
2022/08/19 09:29:58;;;;;;;23.60;14.98;;;;;;;40.56;20.91;100235.91;5030081;28;20136;-55
2022/08/19 09:32:24;;;;;;;12.55;7.10;;;;;;;40.64;20.14;100242.91;5013708;28;20973;-55
2022/08/19 09:34:54;;;;;;;9.23;4.47;;;;;;;40.38;19.83;100246.03;5022710;28;20056;-54
2022/08/19 09:37:21;;;;;;;18.35;6.25;;;;;;;39.28;20.42;100199.03;5031822;28;20125;-54
2022/08/19 09:39:47;;;;;;;12.83;5.90;;;;;;;38.60;20.97;100244.44;5051512;28;20529;-55
2022/08/19 09:42:14;;;;;;;14.88;6.40;;;;;;;37.77;21.70;100233.63;5017632;28;20280;-54
2022/08/19 09:44:41;;;;;;;13.65;5.72;;;;;;;36.96;22.38;100240.47;5018820;28;20065;-57
2022/08/19 09:47:08;;;;;;;9.43;4.40;;;;;;;36.16;22.90;100249.56;5023484;28;20136;-57
2022/08/19 09:49:34;;;;;;;12.23;5.70;;;;;;;35.46;23.81;100247.97;5015755;28;20041;-53
2022/08/19 09:52:01;;;;;;;9.85;4.28;;;;;;;35.19;24.50;100250.53;5013329;28;20059;-56
2022/08/19 09:54:27;;;;;;;7.25;4.57;;;;;;;35.34;24.34;100249.56;5018653;28;20052;-56
2022/08/19 09:56:54;;;;;;;9.52;4.50;;;;;;;35.64;23.82;100243.69;5024914;28;20029;-55
2022/08/19 09:59:20;;;;;;;7.65;5.00;;;;;;;36.00;23.84;100251.59;5031153;28;20045;-59
2022/08/19 10:01:46;;;;;;;9.18;4.57;;;;;;;36.75;22.84;100241.53;5039977;28;20039;-56
2022/08/19 10:04:12;;;;;;;12.13;4.95;;;;;;;37.50;21.92;100227.44;5049898;28;20049;-57
2022/08/19 10:06:39;;;;;;;6.45;4.80;;;;;;;38.47;21.44;100251.63;5040182;28;20041;-57
2022/08/19 10:09:10;;;;;;;8.68;6.30;;;;;;;39.08;20.39;100244.69;5032284;28;20073;-57
2022/08/19 10:11:39;;;;;;;8.55;6.00;;;;;;;39.54;19.92;100253.19;5010103;28;20092;-56
2022/08/19 10:14:05;;;;;;;12.70;5.13;;;;;;;39.59;19.28;100260.69;5021826;28;20056;-57
2022/08/19 10:16:31;;;;;;;9.77;5.32;;;;;;;39.73;19.09;100243.94;5040352;28;20072;-58
2022/08/19 10:18:59;;;;;;;18.73;8.27;;;;;;;39.73;18.96;100262.16;5019953;28;20075;-55
2022/08/19 10:21:28;;;;;;;16.70;9.95;;;;;;;39.45;19.12;100261.91;5029588;28;20065;-56
2022/08/19 10:23:57;;;;;;;30.67;17.13;;;;;;;39.17;19.25;100260.47;5027655;28;20088;-58
2022/08/19 10:26:29;;;;;;;13.38;5.60;;;;;;;39.09;18.97;100265.38;5028276;28;20059;-56
2022/08/19 10:28:56;;;;;;;11.38;8.25;;;;;;;39.61;19.08;100264.00;5024682;28;20061;-58
2022/08/19 10:31:28;;;;;;;11.27;5.25;;;;;;;39.93;18.09;100267.41;5029958;28;20040;-58
2022/08/19 10:33:59;;;;;;;11.32;5.90;;;;;;;39.96;18.75;100256.88;5027377;28;20099;-59
2022/08/19 10:36:28;;;;;;;10.35;8.20;;;;;;;40.24;18.00;100256.31;5026691;28;20417;-59
2022/08/19 10:38:58;;;;;;;11.00;7.32;;;;;;;40.12;19.10;100258.97;5023345;28;20045;-57
2022/08/19 10:41:30;;;;;;;22.33;14.95;;;;;;;40.13;18.92;100263.34;5027332;28;20429;-58
2022/08/19 10:43:58;;;;;;;11.88;7.20;;;;;;;39.97;18.77;100261.28;5028548;28;20510;-57
2022/08/19 10:46:26;;;;;;;24.95;15.10;;;;;;;39.93;18.58;100260.09;5011310;28;20048;-57
2022/08/19 10:48:52;;;;;;;;;;;;;;;40.12;18.49;100264.41;5025004;28;20123;-54
2022/08/19 10:54:04;;;;;;;10.25;7.10;;;;;;;40.34;17.54;100270.22;5052881;28;20410;-55
2022/08/19 10:59:16;;;;;;;12.82;7.15;;;;;;;40.67;16.39;100266.19;5027964;28;20044;-57
2022/08/19 11:01:43;;;;;;;13.88;7.35;;;;;;;40.79;15.91;100272.44;5024728;28;20037;-58
2022/08/19 11:04:10;;;;;;;12.70;6.32;;;;;;;40.43;15.71;100249.72;5023743;28;20060;-55
2022/08/19 11:06:38;;;;;;;21.63;8.07;;;;;;;40.29;15.00;100264.63;5025477;28;20481;-55
2022/08/19 11:09:05;;;;;;;16.80;7.53;;;;;;;40.08;15.59;100262.38;4996056;28;20532;-56
2022/08/19 11:11:31;;;;;;;14.33;5.40;;;;;;;39.98;14.96;100268.41;5028570;28;20202;-56
2022/08/19 11:13:58;;;;;;;11.85;6.38;;;;;;;40.09;15.80;100258.59;5011716;28;20041;-54
2022/08/19 11:16:25;;;;;;;8.95;4.07;;;;;;;40.19;14.22;100262.47;5029019;28;20041;-57
2022/08/19 11:18:53;;;;;;;8.65;3.95;;;;;;;39.76;14.07;100245.38;5024930;28;20179;-56
2022/08/19 11:21:27;;;;;;;19.10;11.68;;;;;;;39.99;14.58;100250.97;5027220;28;20040;-56
2022/08/19 11:23:55;;;;;;;8.80;5.05;;;;;;;39.97;14.53;100255.81;5022185;28;20034;-55
2022/08/19 11:26:22;;;;;;;13.30;6.72;;;;;;;40.02;14.45;100253.25;5006474;28;20191;-55
2022/08/19 11:28:50;;;;;;;15.47;8.40;;;;;;;39.67;14.43;100233.16;5013445;28;20062;-54
2022/08/19 11:31:18;;;;;;;11.15;7.10;;;;;;;39.61;14.61;100247.69;5024929;28;20049;-57
2022/08/19 11:33:45;;;;;;;14.35;6.43;;;;;;;39.36;14.76;100243.13;5027270;28;20046;-56
2022/08/19 11:36:12;;;;;;;15.35;6.28;;;;;;;38.97;14.88;100224.50;5021620;28;20056;-57
2022/08/19 11:38:38;;;;;;;9.90;5.82;;;;;;;38.70;14.98;100247.50;5029914;28;20041;-57
2022/08/19 11:41:07;;;;;;;14.68;9.32;;;;;;;38.25;16.06;100246.78;5034003;28;20250;-58
2022/08/19 11:43:36;;;;;;;7.43;4.22;;;;;;;37.73;15.93;100230.53;5032800;28;20062;-58